createdAt,value
2023-03-06T00:00:39.743Z,0.80
2023-03-06T00:03:06.647Z,0.70
2023-03-06T00:05:33.265Z,0.57
2023-03-06T00:07:59.725Z,0.65
2023-03-06T00:10:29.003Z,0.80
2023-03-06T00:12:59.593Z,0.65
2023-03-06T00:15:27.292Z,1.00
2023-03-06T00:17:54.409Z,0.70
2023-03-06T00:20:22.245Z,0.57
2023-03-06T00:22:49.405Z,0.75
2023-03-06T00:25:18.863Z,0.60
2023-03-06T00:27:45.933Z,0.65
2023-03-06T00:30:18.612Z,0.80
2023-03-06T00:32:45.313Z,0.60
2023-03-06T00:35:12.330Z,0.77
2023-03-06T00:37:39.720Z,0.40
2023-03-06T00:40:07.312Z,0.40
2023-03-06T00:42:33.721Z,0.52
2023-03-06T00:45:00.146Z,0.70
2023-03-06T00:47:26.572Z,0.60
2023-03-06T00:49:53.001Z,0.60
2023-03-06T00:52:19.593Z,1.13
2023-03-06T00:54:46.052Z,1.17
2023-03-06T00:57:12.487Z,1.05
2023-03-06T00:59:39.005Z,1.38
2023-03-06T01:02:05.942Z,0.80
2023-03-06T01:04:32.546Z,1.40
2023-03-06T01:06:59.025Z,1.05
2023-03-06T01:09:25.849Z,0.93
2023-03-06T01:11:52.218Z,0.70
2023-03-06T01:14:21.415Z,1.13
2023-03-06T01:16:48.459Z,0.82
2023-03-06T01:19:14.968Z,0.80
2023-03-06T01:21:41.359Z,0.80
2023-03-06T01:24:07.918Z,0.80
2023-03-06T01:26:34.761Z,0.75
2023-03-06T01:29:01.608Z,0.57
2023-03-06T01:31:28.293Z,0.75
2023-03-06T01:33:54.762Z,0.70
2023-03-06T01:36:21.167Z,1.10
2023-03-06T01:38:47.528Z,0.80
2023-03-06T01:41:17.303Z,0.93
2023-03-06T01:43:45.780Z,0.90
2023-03-06T01:46:17.879Z,1.10
2023-03-06T01:48:46.502Z,0.90
2023-03-06T01:51:13.065Z,0.70
2023-03-06T01:53:40.810Z,1.13
2023-03-06T01:56:07.783Z,1.00
2023-03-06T01:58:34.518Z,0.80
2023-03-06T02:01:00.970Z,0.95
2023-03-06T02:03:28.903Z,0.80
2023-03-06T02:05:56.469Z,0.82
2023-03-06T02:08:23.976Z,0.70
2023-03-06T02:11:14.188Z,0.70
2023-03-06T02:13:42.612Z,0.75
2023-03-06T02:16:10.200Z,0.90
2023-03-06T02:18:38.110Z,0.70
2023-03-06T02:21:08.427Z,0.47
2023-03-06T02:23:53.767Z,1.40
2023-03-06T02:26:21.109Z,1.00
2023-03-06T02:28:47.618Z,1.00
2023-03-06T02:31:22.911Z,0.80
2023-03-06T02:34:15.516Z,1.10
2023-03-06T02:36:51.049Z,0.70
2023-03-06T02:39:21.814Z,0.80
2023-03-06T02:41:48.314Z,0.90
2023-03-06T02:44:14.737Z,0.70
2023-03-06T02:46:41.154Z,0.70
2023-03-06T02:49:07.627Z,1.05
2023-03-06T02:51:34.589Z,0.22
2023-03-06T02:54:00.974Z,0.40
2023-03-06T02:56:27.451Z,0.90
2023-03-06T02:58:53.919Z,0.88
2023-03-06T03:01:20.404Z,0.93
2023-03-06T03:03:46.937Z,0.43
2023-03-06T03:06:13.377Z,0.50
2023-03-06T03:08:39.812Z,0.95
2023-03-06T03:11:06.247Z,0.60
2023-03-06T03:13:32.703Z,0.50
2023-03-06T03:16:02.505Z,0.60
2023-03-06T03:18:29.587Z,0.43
2023-03-06T03:20:56.247Z,0.65
2023-03-06T03:23:23.021Z,0.47
2023-03-06T03:25:50.026Z,0.38
2023-03-06T03:28:16.670Z,0.65
2023-03-06T03:30:43.617Z,0.43
2023-03-06T03:33:10.517Z,0.50
2023-03-06T03:35:37.486Z,0.90
2023-03-06T03:38:04.048Z,0.75
2023-03-06T03:40:30.516Z,0.50
2023-03-06T03:42:56.911Z,0.60
2023-03-06T03:45:23.337Z,0.75
2023-03-06T03:47:49.767Z,0.60
2023-03-06T03:50:16.310Z,0.50
2023-03-06T03:52:42.761Z,0.60
2023-03-06T03:55:09.406Z,0.68
2023-03-06T03:57:35.803Z,0.68
2023-03-06T04:00:02.185Z,0.88
2023-03-06T04:02:28.613Z,0.82
2023-03-06T04:04:55.253Z,0.60
2023-03-06T04:07:21.662Z,0.40
2023-03-06T04:09:48.053Z,0.50
2023-03-06T04:12:14.525Z,0.65
2023-03-06T04:14:40.959Z,0.52
2023-03-06T04:17:07.405Z,0.80
2023-03-06T04:19:33.761Z,0.73
2023-03-06T04:22:00.192Z,1.10
2023-03-06T04:24:26.570Z,1.95
2023-03-06T04:26:53.021Z,1.10
2023-03-06T04:29:19.412Z,1.30
2023-03-06T04:31:45.852Z,1.33
2023-03-06T04:34:12.311Z,0.90
2023-03-06T04:36:38.813Z,0.88
2023-03-06T04:39:05.231Z,1.30
2023-03-06T04:41:31.680Z,1.02
2023-03-06T04:43:58.313Z,1.58
2023-03-06T04:46:25.151Z,1.48
2023-03-06T04:48:51.587Z,1.20
2023-03-06T04:51:18.133Z,0.70
2023-03-06T04:53:44.581Z,1.30
2023-03-06T04:56:11.051Z,1.08
2023-03-06T04:58:37.672Z,0.90
2023-03-06T05:01:04.546Z,1.05
2023-03-06T05:03:31.029Z,1.10
2023-03-06T05:05:58.464Z,0.57
2023-03-06T05:08:24.921Z,1.08
2023-03-06T05:11:01.885Z,0.85
2023-03-06T05:13:29.057Z,0.77
2023-03-06T05:15:55.618Z,0.82
2023-03-06T05:18:22.004Z,0.90
2023-03-06T05:20:48.428Z,0.75
2023-03-06T05:23:14.882Z,0.80
2023-03-06T05:25:42.076Z,0.80
2023-03-06T05:28:08.842Z,0.80
2023-03-06T05:30:36.600Z,0.70
2023-03-06T05:33:03.141Z,0.73
2023-03-06T05:35:29.654Z,1.17
2023-03-06T05:37:56.615Z,0.57
2023-03-06T05:40:23.204Z,0.70
2023-03-06T05:42:49.695Z,0.82
2023-03-06T05:45:16.249Z,0.50
2023-03-06T05:47:42.719Z,0.85
2023-03-06T05:50:10.738Z,0.50
2023-03-06T05:52:39.514Z,0.40
2023-03-06T05:55:07.416Z,0.55
2023-03-06T05:57:34.067Z,0.38
2023-03-06T06:00:00.594Z,0.50
2023-03-06T06:02:27.080Z,0.80
2023-03-06T06:04:53.528Z,0.47
2023-03-06T06:07:19.923Z,0.45
2023-03-06T06:09:46.440Z,0.47
2023-03-06T06:12:14.029Z,0.50
2023-03-06T06:14:40.424Z,0.40
2023-03-06T06:17:07.034Z,0.80
2023-03-06T06:19:33.416Z,0.80
2023-03-06T06:22:02.568Z,0.93
2023-03-06T06:24:29.614Z,1.00
2023-03-06T06:26:57.767Z,0.80
2023-03-06T06:29:25.263Z,0.82
2023-03-06T06:31:52.089Z,0.90
2023-03-06T06:34:19.044Z,0.80
2023-03-06T06:36:45.858Z,0.75
2023-03-06T06:39:15.909Z,1.13
2023-03-06T06:41:59.335Z,0.90
2023-03-06T06:44:28.826Z,0.60
2023-03-06T06:49:41.626Z,0.60
2023-03-06T06:52:08.123Z,0.50
2023-03-06T06:54:34.774Z,0.55
2023-03-06T06:57:01.242Z,1.02
2023-03-06T06:59:27.768Z,1.65
2023-03-06T07:01:54.216Z,1.45
2023-03-06T07:04:20.749Z,0.93
2023-03-06T07:06:47.186Z,0.60
2023-03-06T07:09:14.209Z,1.00
2023-03-06T07:11:41.224Z,0.90
2023-03-06T07:14:08.089Z,0.85
2023-03-06T07:16:34.936Z,0.93
2023-03-06T07:19:01.377Z,1.27
2023-03-06T07:21:27.806Z,0.98
2023-03-06T07:23:57.182Z,1.05
2023-03-06T07:26:27.880Z,1.05
2023-03-06T07:28:54.928Z,1.05
2023-03-06T07:31:23.802Z,1.20
2023-03-06T07:33:51.926Z,1.30
2023-03-06T07:36:18.767Z,0.95
2023-03-06T07:38:45.415Z,1.40
2023-03-06T07:41:13.771Z,1.27
2023-03-06T07:43:41.212Z,0.77
2023-03-06T07:46:08.720Z,0.82
2023-03-06T07:48:36.241Z,0.80
2023-03-06T07:51:08.890Z,0.77
2023-03-06T07:53:35.707Z,0.98
2023-03-06T07:56:08.493Z,1.20
2023-03-06T07:58:36.656Z,0.75
2023-03-06T08:01:05.386Z,0.80
2023-03-06T08:03:32.385Z,0.60
2023-03-06T08:06:10.091Z,0.90
2023-03-06T08:08:39.266Z,1.20
2023-03-06T08:11:07.423Z,0.80
2023-03-06T08:13:34.340Z,0.77
2023-03-06T08:16:00.846Z,0.90
2023-03-06T08:18:28.421Z,0.90
2023-03-06T08:21:05.510Z,0.88
2023-03-06T08:23:32.865Z,0.80
2023-03-06T08:26:00.690Z,0.77
2023-03-06T08:28:28.496Z,0.85
2023-03-06T08:30:56.228Z,1.10
2023-03-06T08:33:23.261Z,1.50
2023-03-06T08:35:49.724Z,1.95
2023-03-06T08:38:16.280Z,2.97
2023-03-06T08:40:42.819Z,1.25
2023-03-06T08:43:12.385Z,0.95
2023-03-06T08:45:40.289Z,0.75
2023-03-06T08:48:06.717Z,0.60
2023-03-06T08:50:33.194Z,0.63
2023-03-06T08:52:59.808Z,0.50
2023-03-06T08:55:28.096Z,0.75
2023-03-06T08:57:54.630Z,0.73
2023-03-06T09:00:21.253Z,0.93
2023-03-06T09:02:47.801Z,0.38
2023-03-06T09:05:14.237Z,0.35
2023-03-06T09:07:40.650Z,0.45
2023-03-06T09:10:08.364Z,0.50
2023-03-06T09:12:47.516Z,0.70
2023-03-06T09:15:16.229Z,0.50
2023-03-06T09:17:42.686Z,0.70
2023-03-06T09:20:10.871Z,0.70
2023-03-06T09:22:37.747Z,0.70
2023-03-06T09:25:05.877Z,0.63
2023-03-06T09:27:32.362Z,0.50
2023-03-06T09:29:58.780Z,0.30
2023-03-06T09:32:25.889Z,0.60
2023-03-06T09:34:52.399Z,0.17
2023-03-06T09:37:19.267Z,0.10
2023-03-06T09:39:45.657Z,0.20
2023-03-06T09:42:18.842Z,0.35
2023-03-06T09:44:54.584Z,0.22
2023-03-06T09:47:45.012Z,0.30
2023-03-06T09:50:20.615Z,0.50
2023-03-06T09:52:59.204Z,0.40
2023-03-06T09:55:30.354Z,0.32
2023-03-06T09:58:09.022Z,0.40
2023-03-06T10:01:17.209Z,0.20
2023-03-06T10:04:13.516Z,0.20
2023-03-06T10:06:48.264Z,0.30
2023-03-06T10:09:32.013Z,0.32
2023-03-06T10:12:06.654Z,0.10
2023-03-06T10:14:41.895Z,0.40
2023-03-06T10:17:20.093Z,0.40
2023-03-06T10:19:49.955Z,0.40
2023-03-06T10:22:33.174Z,1.08
2023-03-06T10:25:26.039Z,0.70
2023-03-06T10:28:03.662Z,0.52
2023-03-06T10:30:52.636Z,0.40
2023-03-06T10:33:42.319Z,0.50
2023-03-06T10:36:14.577Z,0.30
2023-03-06T10:38:42.650Z,0.30
2023-03-06T10:41:11.986Z,0.47
2023-03-06T10:44:05.675Z,0.30
2023-03-06T10:46:37.901Z,0.30
2023-03-06T10:49:22.175Z,0.35
2023-03-06T10:51:59.626Z,0.20
2023-03-06T10:54:26.925Z,0.20
2023-03-06T10:56:53.544Z,0.30
2023-03-06T10:59:26.508Z,0.13
2023-03-06T11:01:58.741Z,0.60
2023-03-06T11:04:29.756Z,0.55
2023-03-06T11:07:18.209Z,1.17
2023-03-06T11:09:56.505Z,0.47
2023-03-06T11:12:29.070Z,0.40
2023-03-06T11:15:20.950Z,0.60
2023-03-06T11:18:04.540Z,0.50
2023-03-06T11:20:52.141Z,3.28
2023-03-06T11:23:28.363Z,0.73
2023-03-06T11:26:07.104Z,0.88
2023-03-06T11:28:40.769Z,0.60
2023-03-06T11:31:32.983Z,0.60
2023-03-06T11:34:16.508Z,0.55
2023-03-06T11:37:06.224Z,0.70
2023-03-06T11:39:42.772Z,0.90
2023-03-06T11:42:34.558Z,1.08
2023-03-06T11:45:04.240Z,0.65
2023-03-06T11:47:40.986Z,1.00
2023-03-06T11:50:18.882Z,0.80
2023-03-06T11:52:57.134Z,0.40
2023-03-06T11:55:42.670Z,0.57
2023-03-06T11:58:22.410Z,0.50
2023-03-06T12:01:08.696Z,0.77
2023-03-06T12:03:50.290Z,0.85
2023-03-06T12:06:16.675Z,0.80
2023-03-06T12:09:09.008Z,1.90
2023-03-06T12:11:45.823Z,1.10
2023-03-06T12:14:37.240Z,1.30
2023-03-06T12:17:23.423Z,0.90
2023-03-06T12:19:50.594Z,1.17
2023-03-06T12:22:31.221Z,1.30
2023-03-06T12:25:08.455Z,1.30
2023-03-06T12:28:15.854Z,1.58
2023-03-06T12:31:17.561Z,1.77
2023-03-06T12:34:14.290Z,1.70
2023-03-06T12:37:07.653Z,1.80
2023-03-06T12:40:12.586Z,1.77
2023-03-06T12:43:23.573Z,1.67
2023-03-06T12:45:57.834Z,2.45
2023-03-06T12:48:29.220Z,1.80
2023-03-06T12:50:56.290Z,2.22
2023-03-06T12:53:30.644Z,2.33
2023-03-06T12:56:00.171Z,2.92
2023-03-06T12:58:32.596Z,3.33
2023-03-06T13:01:32.387Z,3.75
2023-03-06T13:04:16.968Z,2.90
2023-03-06T13:07:04.996Z,2.55
2023-03-06T13:10:06.317Z,2.25
2023-03-06T13:12:49.837Z,2.10
2023-03-06T13:15:37.899Z,1.85
2023-03-06T13:18:42.732Z,2.20
2023-03-06T13:21:44.633Z,2.33
2023-03-06T13:24:25.603Z,2.65
2023-03-06T13:27:04.724Z,2.80
2023-03-06T13:29:36.788Z,2.40
2023-03-06T13:32:03.411Z,2.85
2023-03-06T13:34:35.771Z,2.50
2023-03-06T13:37:17.586Z,2.90
2023-03-06T13:39:56.045Z,2.95
2023-03-06T13:42:29.949Z,2.92
2023-03-06T13:45:05.619Z,2.35
2023-03-06T13:50:44.249Z,2.00
2023-03-06T13:53:44.527Z,2.00
2023-03-06T13:56:28.957Z,2.65
2023-03-06T13:59:37.335Z,3.03
2023-03-06T14:02:55.971Z,2.47
2023-03-06T14:05:24.048Z,1.80
2023-03-06T14:08:18.465Z,1.65
2023-03-06T14:10:47.279Z,1.33
2023-03-06T14:13:22.279Z,1.30
2023-03-06T14:15:51.268Z,1.70
2023-03-06T14:18:38.480Z,2.38
2023-03-06T14:21:11.817Z,2.10
2023-03-06T14:23:42.585Z,2.38
2023-03-06T14:26:18.574Z,2.25
2023-03-06T14:28:56.628Z,2.97
2023-03-06T14:31:25.627Z,2.38
2023-03-06T14:33:55.252Z,2.45
2023-03-06T14:36:26.003Z,2.15
2023-03-06T14:38:59.009Z,2.67
2023-03-06T14:41:32.061Z,2.40
2023-03-06T14:44:28.526Z,2.47
2023-03-06T14:46:56.893Z,2.40
2023-03-06T14:49:25.598Z,2.33
2023-03-06T14:52:00.536Z,2.10
2023-03-06T14:54:36.928Z,2.55
2023-03-06T14:57:08.518Z,2.67
2023-03-06T14:59:41.619Z,2.97
2023-03-06T15:02:12.545Z,3.33
2023-03-06T15:04:49.115Z,3.45
2023-03-06T15:07:26.076Z,3.20
2023-03-06T15:09:54.313Z,3.33
2023-03-06T15:12:20.809Z,3.20
2023-03-06T15:15:10.410Z,4.30
2023-03-06T15:17:42.776Z,4.40
2023-03-06T15:20:37.447Z,4.32
2023-03-06T15:23:15.365Z,5.15
2023-03-06T15:25:50.836Z,3.67
2023-03-06T15:28:26.872Z,4.20
2023-03-06T15:31:18.128Z,3.55
2023-03-06T15:33:59.383Z,3.85
2023-03-06T15:36:29.637Z,3.80
2023-03-06T15:38:56.512Z,3.45
2023-03-06T15:41:38.088Z,3.78
2023-03-06T15:44:15.366Z,4.03
2023-03-06T15:46:42.067Z,3.85
2023-03-06T15:49:17.491Z,4.18
2023-03-06T15:51:44.053Z,4.18
2023-03-06T15:54:12.535Z,3.55
2023-03-06T15:56:42.200Z,4.30
2023-03-06T15:59:15.415Z,3.97
2023-03-06T16:01:43.288Z,3.72
2023-03-06T16:04:09.807Z,4.20
2023-03-06T16:06:37.220Z,4.05
2023-03-06T16:09:03.620Z,4.85
2023-03-06T16:11:41.977Z,3.83
2023-03-06T16:14:20.026Z,3.17
2023-03-06T16:16:47.664Z,3.10
2023-03-06T16:19:26.011Z,3.67
2023-03-06T16:21:53.199Z,3.60
2023-03-06T16:24:19.572Z,3.83
2023-03-06T16:26:49.275Z,4.22
2023-03-06T16:29:24.073Z,3.63
2023-03-06T16:31:51.456Z,4.28
2023-03-06T16:34:19.672Z,3.70
2023-03-06T16:36:48.161Z,3.47
2023-03-06T16:39:20.684Z,4.55
2023-03-06T16:41:49.283Z,4.35
2023-03-06T16:44:15.907Z,4.72
2023-03-06T16:46:47.084Z,4.28
2023-03-06T16:49:22.661Z,4.72
2023-03-06T16:51:49.751Z,5.70
2023-03-06T16:54:16.160Z,5.88
2023-03-06T16:56:43.338Z,7.53
2023-03-06T16:59:10.624Z,6.95
2023-03-06T17:01:38.678Z,6.53
2023-03-06T17:04:05.313Z,7.60
2023-03-06T17:06:31.787Z,7.18
2023-03-06T17:08:59.645Z,7.65
2023-03-06T17:11:26.615Z,7.40
2023-03-06T17:13:54.679Z,8.60
2023-03-06T17:16:21.444Z,8.80
2023-03-06T17:18:48.239Z,10.13
2023-03-06T17:21:17.578Z,9.85
2023-03-06T17:23:44.631Z,10.70
2023-03-06T17:26:18.100Z,11.63
2023-03-06T17:28:45.784Z,11.60
2023-03-06T17:31:21.176Z,11.63
2023-03-06T17:33:48.425Z,12.00
2023-03-06T17:36:15.962Z,11.15
2023-03-06T17:38:43.430Z,13.10
2023-03-06T17:41:11.446Z,12.07
2023-03-06T17:43:38.668Z,11.88
2023-03-06T17:46:10.540Z,11.45
2023-03-06T17:48:37.510Z,11.80
2023-03-06T17:51:04.093Z,10.20
2023-03-06T17:53:31.968Z,10.65
2023-03-06T17:55:58.403Z,10.65
2023-03-06T17:58:26.173Z,10.48
2023-03-06T18:00:52.820Z,9.77
2023-03-06T18:03:19.484Z,9.95
2023-03-06T18:05:46.044Z,10.05
2023-03-06T18:08:12.523Z,9.85
2023-03-06T18:10:43.420Z,9.65
2023-03-06T18:13:10.437Z,10.00
2023-03-06T18:15:40.940Z,8.73
2023-03-06T18:18:08.422Z,8.68
2023-03-06T18:20:40.342Z,8.77
2023-03-06T18:23:06.803Z,9.43
2023-03-06T18:25:33.325Z,10.25
2023-03-06T18:27:59.802Z,9.43
2023-03-06T18:30:26.631Z,9.68
2023-03-06T18:32:53.972Z,8.25
2023-03-06T18:35:21.033Z,9.07
2023-03-06T18:37:47.536Z,8.70
2023-03-06T18:40:14.311Z,7.82
2023-03-06T18:42:40.778Z,8.23
2023-03-06T18:45:07.832Z,8.77
2023-03-06T18:47:34.192Z,7.60
2023-03-06T18:50:02.650Z,7.53
2023-03-06T18:52:29.060Z,6.20
2023-03-06T18:54:55.443Z,5.70
2023-03-06T18:57:21.943Z,5.20
2023-03-06T18:59:48.382Z,7.03
2023-03-06T19:02:14.816Z,6.70
2023-03-06T19:04:41.265Z,6.30
2023-03-06T19:07:07.856Z,6.45
2023-03-06T19:09:34.247Z,5.78
2023-03-06T19:12:03.392Z,5.50
2023-03-06T19:14:29.923Z,6.03
2023-03-06T19:16:56.712Z,5.95
2023-03-06T19:19:26.396Z,6.65
2023-03-06T19:21:53.507Z,7.10
2023-03-06T19:24:19.938Z,8.27
2023-03-06T19:26:46.387Z,8.18
2023-03-06T19:29:12.942Z,7.95
2023-03-06T19:31:39.394Z,7.57
2023-03-06T19:34:05.814Z,7.07
2023-03-06T19:36:34.109Z,6.38
2023-03-06T19:39:04.076Z,5.90
2023-03-06T19:41:30.553Z,5.85
2023-03-06T19:43:59.215Z,4.72
2023-03-06T19:46:26.514Z,4.00
2023-03-06T19:49:01.496Z,4.88
2023-03-06T19:51:28.594Z,6.00
2023-03-06T19:53:56.603Z,5.60
2023-03-06T19:56:28.983Z,5.53
2023-03-06T19:58:56.312Z,4.20
2023-03-06T20:01:25.125Z,3.78
2023-03-06T20:03:59.353Z,3.78
2023-03-06T20:06:28.049Z,3.25
2023-03-06T20:08:54.868Z,2.65
2023-03-06T20:11:23.995Z,2.05
2023-03-06T20:13:50.724Z,2.33
2023-03-06T20:16:17.903Z,2.92
2023-03-06T20:18:45.452Z,2.10
2023-03-06T20:21:12.168Z,2.50
2023-03-06T20:23:38.603Z,1.83
2023-03-06T20:26:11.732Z,2.50
2023-03-06T20:28:39.416Z,2.30
2023-03-06T20:31:27.650Z,2.13
2023-03-06T20:33:56.287Z,1.48
2023-03-06T20:36:27.419Z,1.88
2023-03-06T20:38:53.839Z,2.28
2023-03-06T20:41:25.353Z,1.98
2023-03-06T20:43:52.345Z,2.63
2023-03-06T20:46:22.781Z,2.70
2023-03-06T20:48:51.755Z,2.42
2023-03-06T20:51:28.524Z,2.25
2023-03-06T20:53:55.931Z,2.20
2023-03-06T20:56:25.444Z,1.98
2023-03-06T20:58:52.124Z,2.13
2023-03-06T21:01:23.761Z,2.22
2023-03-06T21:03:51.067Z,2.22
2023-03-06T21:06:18.164Z,2.25
2023-03-06T21:08:45.345Z,2.53
2023-03-06T21:11:11.987Z,2.22
2023-03-06T21:13:38.465Z,2.58
2023-03-06T21:16:10.716Z,1.90
2023-03-06T21:18:37.200Z,2.22
2023-03-06T21:21:08.847Z,2.75
2023-03-06T21:23:35.280Z,2.05
2023-03-06T21:26:01.733Z,1.90
2023-03-06T21:28:28.215Z,2.20
2023-03-06T21:30:54.577Z,2.53
2023-03-06T21:33:21.035Z,2.30
2023-03-06T21:35:47.560Z,2.65
2023-03-06T21:38:14.030Z,2.47
2023-03-06T21:40:40.598Z,2.25
2023-03-06T21:43:07.016Z,1.33
2023-03-06T21:45:33.471Z,1.42
2023-03-06T21:48:00.314Z,1.20
2023-03-06T21:50:28.090Z,1.30
2023-03-06T21:52:56.316Z,1.45
2023-03-06T21:55:23.320Z,1.20
2023-03-06T21:57:53.991Z,1.33
2023-03-06T22:00:23.252Z,2.03
2023-03-06T22:02:50.151Z,1.13
2023-03-06T22:05:16.930Z,1.30
2023-03-06T22:07:43.380Z,1.30
2023-03-06T22:10:12.134Z,1.20
2023-03-06T22:12:39.238Z,1.35
2023-03-06T22:15:06.792Z,1.15
2023-03-06T22:17:33.280Z,1.50
2023-03-06T22:19:59.622Z,1.58
2023-03-06T22:22:26.054Z,1.70
2023-03-06T22:24:52.470Z,1.60
2023-03-06T22:27:18.882Z,1.20
2023-03-06T22:29:45.873Z,1.60
2023-03-06T22:32:12.647Z,1.35
2023-03-06T22:34:39.285Z,1.60
2023-03-06T22:37:05.693Z,1.70
2023-03-06T22:39:32.093Z,1.00
2023-03-06T22:41:58.751Z,1.00
2023-03-06T22:44:25.138Z,0.90
2023-03-06T22:46:51.791Z,1.17
2023-03-06T22:49:18.815Z,0.98
2023-03-06T22:51:45.339Z,1.27
2023-03-06T22:54:11.886Z,0.73
2023-03-06T22:56:38.428Z,1.00
2023-03-06T22:59:05.270Z,1.00
2023-03-06T23:01:34.083Z,0.88
2023-03-06T23:04:02.863Z,0.93
2023-03-06T23:06:31.855Z,0.90
2023-03-06T23:09:05.966Z,1.40
2023-03-06T23:11:33.017Z,0.98
2023-03-06T23:13:59.702Z,0.90
2023-03-06T23:16:26.290Z,1.20
2023-03-06T23:18:53.320Z,1.23
2023-03-06T23:21:21.689Z,0.80
2023-03-06T23:23:50.198Z,1.30
2023-03-06T23:26:17.363Z,0.82
2023-03-06T23:28:43.935Z,0.90
2023-03-06T23:31:15.772Z,1.05
2023-03-06T23:33:42.630Z,1.17
2023-03-06T23:36:12.600Z,1.30
2023-03-06T23:38:39.389Z,1.13
2023-03-06T23:41:12.622Z,1.70
2023-03-06T23:43:39.308Z,1.02
2023-03-06T23:46:07.166Z,1.85
2023-03-06T23:48:35.702Z,1.50
2023-03-06T23:51:23.031Z,1.42
2023-03-06T23:53:55.617Z,1.30
2023-03-06T23:56:23.176Z,1.30
2023-03-06T23:58:49.652Z,1.38
